createdAt,value
2023-05-16T00:00:01.092Z,523.00
2023-05-16T00:01:01.245Z,528.00
2023-05-16T00:02:01.207Z,524.00
2023-05-16T00:03:01.217Z,527.00
2023-05-16T00:04:01.308Z,523.00
2023-05-16T00:05:01.273Z,525.00
2023-05-16T00:06:01.311Z,527.00
2023-05-16T00:07:01.354Z,521.00
2023-05-16T00:08:01.365Z,522.00
2023-05-16T00:09:01.372Z,522.00
2023-05-16T00:10:01.427Z,518.00
2023-05-16T00:11:01.764Z,526.00
2023-05-16T00:12:01.473Z,520.00
2023-05-16T00:13:01.507Z,517.00
2023-05-16T00:14:01.712Z,519.00
2023-05-16T00:15:01.574Z,522.00
2023-05-16T00:16:01.600Z,520.00
2023-05-16T00:17:01.653Z,516.00
2023-05-16T00:18:01.727Z,516.00
2023-05-16T00:19:01.760Z,517.00
2023-05-16T00:20:01.738Z,524.00
2023-05-16T00:21:01.784Z,522.00
2023-05-16T00:22:01.807Z,521.00
2023-05-16T00:23:01.853Z,518.00
2023-05-16T00:24:01.863Z,526.00
2023-05-16T00:25:01.911Z,522.00
2023-05-16T00:26:02.289Z,522.00
2023-05-16T00:27:01.951Z,523.00
2023-05-16T00:28:01.986Z,519.00
2023-05-16T00:29:01.994Z,517.00
2023-05-16T00:30:02.051Z,520.00
2023-05-16T00:31:02.378Z,519.00
2023-05-16T00:32:02.176Z,521.00
2023-05-16T00:33:02.262Z,520.00
2023-05-16T00:34:02.216Z,520.00
2023-05-16T00:35:02.194Z,517.00
2023-05-16T00:36:02.291Z,518.00
2023-05-16T00:37:02.256Z,525.00
2023-05-16T00:38:02.309Z,516.00
2023-05-16T00:39:02.350Z,516.00
2023-05-16T00:40:02.416Z,520.00
2023-05-16T00:41:02.821Z,520.00
2023-05-16T00:42:02.398Z,516.00
2023-05-16T00:43:02.516Z,513.00
2023-05-16T00:44:02.431Z,517.00
2023-05-16T00:45:02.546Z,517.00
2023-05-16T00:46:02.654Z,520.00
2023-05-16T00:47:02.559Z,515.00
2023-05-16T00:48:02.690Z,512.00
2023-05-16T00:49:02.646Z,511.00
2023-05-16T00:50:02.708Z,517.00
2023-05-16T00:51:02.822Z,513.00
2023-05-16T00:52:02.719Z,512.00
2023-05-16T00:53:02.738Z,519.00
2023-05-16T00:54:02.757Z,507.00
2023-05-16T00:55:02.880Z,512.00
2023-05-16T00:56:03.338Z,515.00
2023-05-16T00:57:02.875Z,514.00
2023-05-16T00:58:02.901Z,511.00
2023-05-16T00:59:02.931Z,512.00
2023-05-16T01:00:02.995Z,515.00
2023-05-16T01:01:03.327Z,513.00
2023-05-16T01:02:03.171Z,509.00
2023-05-16T01:03:03.120Z,507.00
2023-05-16T01:04:03.215Z,513.00
2023-05-16T01:05:03.093Z,511.00
2023-05-16T01:06:03.294Z,513.00
2023-05-16T01:07:03.153Z,518.00
2023-05-16T01:08:03.186Z,515.00
2023-05-16T01:09:03.210Z,512.00
2023-05-16T01:10:03.227Z,512.00
2023-05-16T01:11:03.322Z,509.00
2023-05-16T01:12:03.312Z,507.00
2023-05-16T01:13:03.306Z,511.00
2023-05-16T01:14:03.349Z,506.00
2023-05-16T01:15:03.394Z,511.00
2023-05-16T01:16:03.825Z,510.00
2023-05-16T01:17:03.468Z,510.00
2023-05-16T01:18:03.546Z,511.00
2023-05-16T01:19:03.564Z,511.00
2023-05-16T01:20:03.563Z,512.00
2023-05-16T01:21:03.877Z,507.00
2023-05-16T01:22:03.585Z,508.00
2023-05-16T01:23:03.644Z,509.00
2023-05-16T01:24:03.667Z,510.00
2023-05-16T01:25:03.693Z,509.00
2023-05-16T01:26:03.818Z,509.00
2023-05-16T01:27:03.796Z,510.00
2023-05-16T01:28:03.794Z,507.00
2023-05-16T01:29:03.811Z,508.00
2023-05-16T01:30:03.869Z,504.00
2023-05-16T01:31:04.319Z,504.00
2023-05-16T01:32:03.989Z,508.00
2023-05-16T01:33:04.021Z,506.00
2023-05-16T01:34:04.000Z,510.00
2023-05-16T01:35:03.987Z,512.00
2023-05-16T01:36:04.308Z,502.00
2023-05-16T01:37:04.046Z,509.00
2023-05-16T01:38:04.091Z,504.00
2023-05-16T01:39:04.218Z,505.00
2023-05-16T01:40:04.171Z,504.00
2023-05-16T01:41:04.328Z,507.00
2023-05-16T01:42:04.225Z,509.00
2023-05-16T01:43:04.253Z,504.00
2023-05-16T01:44:04.318Z,503.00
2023-05-16T01:45:04.308Z,513.00
2023-05-16T01:46:04.800Z,508.00
2023-05-16T01:47:04.475Z,506.00
2023-05-16T01:48:04.480Z,503.00
2023-05-16T01:49:04.427Z,506.00
2023-05-16T01:50:04.459Z,512.00
2023-05-16T01:51:04.525Z,507.00
2023-05-16T01:52:04.525Z,504.00
2023-05-16T01:53:04.540Z,504.00
2023-05-16T01:54:04.618Z,508.00
2023-05-16T01:55:04.645Z,506.00
2023-05-16T01:56:04.796Z,506.00
2023-05-16T01:57:04.711Z,511.00
2023-05-16T01:58:04.741Z,508.00
2023-05-16T01:59:04.737Z,511.00
2023-05-16T02:00:04.841Z,504.00
2023-05-16T02:01:04.863Z,507.00
2023-05-16T02:02:04.853Z,505.00
2023-05-16T02:03:04.944Z,506.00
2023-05-16T02:04:04.980Z,505.00
2023-05-16T02:05:04.982Z,506.00
2023-05-16T02:06:05.338Z,507.00
2023-05-16T02:07:05.046Z,501.00
2023-05-16T02:08:05.085Z,504.00
2023-05-16T02:09:05.127Z,505.00
2023-05-16T02:10:05.104Z,506.00
2023-05-16T02:11:05.163Z,501.00
2023-05-16T02:12:05.208Z,502.00
2023-05-16T02:13:05.209Z,504.00
2023-05-16T02:14:05.267Z,502.00
2023-05-16T02:15:05.315Z,509.00
2023-05-16T02:16:05.834Z,511.00
2023-05-16T02:17:05.398Z,505.00
2023-05-16T02:18:05.543Z,511.00
2023-05-16T02:19:05.473Z,505.00
2023-05-16T02:20:05.473Z,506.00
2023-05-16T02:21:05.795Z,505.00
2023-05-16T02:22:05.509Z,504.00
2023-05-16T02:23:05.590Z,503.00
2023-05-16T02:24:05.570Z,507.00
2023-05-16T02:25:05.609Z,508.00
2023-05-16T02:26:05.666Z,507.00
2023-05-16T02:27:05.679Z,503.00
2023-05-16T02:28:05.746Z,505.00
2023-05-16T02:29:05.743Z,501.00
2023-05-16T02:30:05.789Z,508.00
2023-05-16T02:31:06.424Z,507.00
2023-05-16T02:32:05.849Z,508.00
2023-05-16T02:33:05.904Z,502.00
2023-05-16T02:34:05.939Z,503.00
2023-05-16T02:35:05.953Z,506.00
2023-05-16T02:36:06.299Z,507.00
2023-05-16T02:37:06.063Z,504.00
2023-05-16T02:38:06.078Z,508.00
2023-05-16T02:39:06.125Z,505.00
2023-05-16T02:40:06.135Z,504.00
2023-05-16T02:41:06.298Z,511.00
2023-05-16T02:42:06.230Z,506.00
2023-05-16T02:43:06.232Z,504.00
2023-05-16T02:44:06.291Z,503.00
2023-05-16T02:45:06.331Z,505.00
2023-05-16T02:46:06.817Z,508.00
2023-05-16T02:47:06.382Z,513.00
2023-05-16T02:48:06.479Z,506.00
2023-05-16T02:49:06.458Z,510.00
2023-05-16T02:50:06.533Z,509.00
2023-05-16T02:51:06.836Z,510.00
2023-05-16T02:52:06.555Z,506.00
2023-05-16T02:53:06.622Z,510.00
2023-05-16T02:54:06.633Z,507.00
2023-05-16T02:55:20.878Z,509.00
2023-05-16T02:56:07.706Z,509.00
2023-05-16T02:57:06.676Z,509.00
2023-05-16T02:58:06.668Z,505.00
2023-05-16T02:59:06.702Z,503.00
2023-05-16T03:00:06.715Z,506.00
2023-05-16T03:01:06.886Z,500.00
2023-05-16T03:02:06.653Z,506.00
2023-05-16T03:03:06.683Z,507.00
2023-05-16T03:04:06.684Z,507.00
2023-05-16T03:05:06.641Z,504.00
2023-05-16T03:06:06.813Z,506.00
2023-05-16T03:07:06.580Z,500.00
2023-05-16T03:08:06.631Z,503.00
2023-05-16T03:09:06.668Z,506.00
2023-05-16T03:10:06.717Z,510.00
2023-05-16T03:11:06.786Z,504.00
2023-05-16T03:12:07.238Z,511.00
2023-05-16T03:13:06.834Z,506.00
2023-05-16T03:14:06.870Z,511.00
2023-05-16T03:15:06.879Z,507.00
2023-05-16T03:16:07.441Z,508.00
2023-05-16T03:17:06.990Z,517.00
2023-05-16T03:18:07.032Z,510.00
2023-05-16T03:19:07.209Z,504.00
2023-05-16T03:20:07.079Z,506.00
2023-05-16T03:21:07.325Z,506.00
2023-05-16T03:22:07.176Z,513.00
2023-05-16T03:23:07.220Z,504.00
2023-05-16T03:24:07.321Z,502.00
2023-05-16T03:25:07.276Z,511.00
2023-05-16T03:26:07.807Z,509.00
2023-05-16T03:27:07.370Z,505.00
2023-05-16T03:28:07.427Z,510.00
2023-05-16T03:29:07.506Z,508.00
2023-05-16T03:30:07.540Z,508.00
2023-05-16T03:31:07.612Z,503.00
2023-05-16T03:32:07.791Z,507.00
2023-05-16T03:33:07.741Z,506.00
2023-05-16T03:34:07.668Z,508.00
2023-05-16T03:35:07.740Z,507.00
2023-05-16T03:36:07.849Z,505.00
2023-05-16T03:37:07.809Z,507.00
2023-05-16T03:38:07.862Z,510.00
2023-05-16T03:39:07.882Z,506.00
2023-05-16T03:40:07.913Z,506.00
2023-05-16T03:41:08.362Z,504.00
2023-05-16T03:42:07.993Z,507.00
2023-05-16T03:43:08.039Z,509.00
2023-05-16T03:44:08.067Z,505.00
2023-05-16T03:45:08.113Z,507.00
2023-05-16T03:46:08.341Z,506.00
2023-05-16T03:47:08.207Z,505.00
2023-05-16T03:48:08.280Z,509.00
2023-05-16T03:49:08.268Z,510.00
2023-05-16T03:50:08.333Z,504.00
2023-05-16T03:51:08.862Z,503.00
2023-05-16T03:52:08.410Z,505.00
2023-05-16T03:53:08.684Z,506.00
2023-05-16T03:54:08.486Z,508.00
2023-05-16T03:55:08.556Z,510.00
2023-05-16T03:56:08.878Z,514.00
2023-05-16T03:57:08.631Z,505.00
2023-05-16T03:58:08.654Z,508.00
2023-05-16T03:59:08.702Z,506.00
2023-05-16T04:00:08.744Z,509.00
2023-05-16T04:01:08.821Z,507.00
2023-05-16T04:02:08.857Z,512.00
2023-05-16T04:03:08.888Z,505.00
2023-05-16T04:04:08.891Z,507.00
2023-05-16T04:05:09.079Z,508.00
2023-05-16T04:06:09.018Z,507.00
2023-05-16T04:07:09.013Z,508.00
2023-05-16T04:08:09.055Z,507.00
2023-05-16T04:09:09.109Z,508.00
2023-05-16T04:10:09.188Z,511.00
2023-05-16T04:11:09.193Z,507.00
2023-05-16T04:12:09.261Z,511.00
2023-05-16T04:13:09.301Z,506.00
2023-05-16T04:14:09.455Z,504.00
2023-05-16T04:15:09.392Z,511.00
2023-05-16T04:16:09.427Z,509.00
2023-05-16T04:17:09.614Z,512.00
2023-05-16T04:18:09.552Z,505.00
2023-05-16T04:19:09.568Z,508.00
2023-05-16T04:20:09.612Z,507.00
2023-05-16T04:21:09.671Z,503.00
2023-05-16T04:22:09.684Z,503.00
2023-05-16T04:23:09.706Z,506.00
2023-05-16T04:24:09.757Z,508.00
2023-05-16T04:25:09.805Z,506.00
2023-05-16T04:26:10.337Z,508.00
2023-05-16T04:27:09.895Z,510.00
2023-05-16T04:28:09.912Z,508.00
2023-05-16T04:29:09.969Z,512.00
2023-05-16T04:30:09.988Z,507.00
2023-05-16T04:31:10.366Z,508.00
2023-05-16T04:32:10.115Z,508.00
2023-05-16T04:33:10.263Z,509.00
2023-05-16T04:34:10.195Z,501.00
2023-05-16T04:35:10.259Z,507.00
2023-05-16T04:36:10.405Z,506.00
2023-05-16T04:37:10.322Z,500.00
2023-05-16T04:38:10.351Z,502.00
2023-05-16T04:39:10.422Z,508.00
2023-05-16T04:40:10.476Z,507.00
2023-05-16T04:41:10.497Z,504.00
2023-05-16T04:42:10.545Z,506.00
2023-05-16T04:43:10.588Z,504.00
2023-05-16T04:44:10.664Z,507.00
2023-05-16T04:45:10.702Z,505.00
2023-05-16T04:46:10.767Z,507.00
2023-05-16T04:47:10.783Z,508.00
2023-05-16T04:48:10.894Z,503.00
2023-05-16T04:49:10.869Z,508.00
2023-05-16T04:50:10.903Z,507.00
2023-05-16T04:51:10.925Z,507.00
2023-05-16T04:52:11.016Z,505.00
2023-05-16T04:53:11.065Z,504.00
2023-05-16T04:54:11.070Z,508.00
2023-05-16T04:55:11.159Z,500.00
2023-05-16T04:56:11.364Z,507.00
2023-05-16T04:57:11.239Z,505.00
2023-05-16T04:58:11.284Z,506.00
2023-05-16T04:59:11.329Z,509.00
2023-05-16T05:00:11.337Z,505.00
2023-05-16T05:01:11.449Z,509.00
2023-05-16T05:02:11.518Z,506.00
2023-05-16T05:03:11.560Z,515.00
2023-05-16T05:04:11.538Z,505.00
2023-05-16T05:05:11.627Z,507.00
2023-05-16T05:06:11.630Z,506.00
2023-05-16T05:07:11.638Z,507.00
2023-05-16T05:08:11.682Z,510.00
2023-05-16T05:09:11.763Z,506.00
2023-05-16T05:10:11.803Z,505.00
2023-05-16T05:11:11.836Z,504.00
2023-05-16T05:12:11.889Z,508.00
2023-05-16T05:13:11.907Z,505.00
2023-05-16T05:14:11.972Z,505.00
2023-05-16T05:15:12.009Z,511.00
2023-05-16T05:16:12.045Z,508.00
2023-05-16T05:17:12.139Z,506.00
2023-05-16T05:18:12.173Z,506.00
2023-05-16T05:19:12.265Z,503.00
2023-05-16T05:20:12.233Z,507.00
2023-05-16T05:21:12.384Z,508.00
2023-05-16T05:22:12.303Z,513.00
2023-05-16T05:23:12.371Z,508.00
2023-05-16T05:24:12.386Z,512.00
2023-05-16T05:25:12.453Z,510.00
2023-05-16T05:26:12.851Z,510.00
2023-05-16T05:27:12.574Z,504.00
2023-05-16T05:28:12.574Z,508.00
2023-05-16T05:29:12.629Z,506.00
2023-05-16T05:30:12.676Z,509.00
2023-05-16T05:31:12.865Z,504.00
2023-05-16T05:32:12.880Z,502.00
2023-05-16T05:33:12.837Z,505.00
2023-05-16T05:34:12.893Z,511.00
2023-05-16T05:35:12.921Z,507.00
2023-05-16T05:36:12.932Z,505.00
2023-05-16T05:37:13.024Z,508.00
2023-05-16T05:38:13.041Z,507.00
2023-05-16T05:39:13.076Z,505.00
2023-05-16T05:40:13.134Z,507.00
2023-05-16T05:41:13.380Z,509.00
2023-05-16T05:42:13.239Z,509.00
2023-05-16T05:43:13.250Z,508.00
2023-05-16T05:44:13.326Z,512.00
2023-05-16T05:45:13.354Z,506.00
2023-05-16T05:46:13.923Z,510.00
2023-05-16T05:47:13.449Z,510.00
2023-05-16T05:48:13.581Z,502.00
2023-05-16T05:49:13.574Z,510.00
2023-05-16T05:50:13.608Z,510.00
2023-05-16T05:51:13.899Z,514.00
2023-05-16T05:52:13.697Z,510.00
2023-05-16T05:53:13.752Z,512.00
2023-05-16T05:54:13.806Z,510.00
2023-05-16T05:55:13.853Z,506.00
2023-05-16T05:56:14.366Z,511.00
2023-05-16T05:57:13.976Z,507.00
2023-05-16T05:58:13.975Z,506.00
2023-05-16T05:59:14.045Z,508.00
2023-05-16T06:00:14.123Z,506.00
2023-05-16T06:01:14.370Z,510.00
2023-05-16T06:02:14.219Z,509.00
2023-05-16T06:03:14.343Z,510.00
2023-05-16T06:04:14.276Z,509.00
2023-05-16T06:05:14.344Z,516.00
2023-05-16T06:06:14.368Z,508.00
2023-05-16T06:07:14.408Z,509.00
2023-05-16T06:08:14.471Z,508.00
2023-05-16T06:09:14.508Z,506.00
2023-05-16T06:10:14.567Z,504.00
2023-05-16T06:11:14.604Z,508.00
2023-05-16T06:12:14.648Z,510.00
2023-05-16T06:13:14.704Z,504.00
2023-05-16T06:14:14.740Z,510.00
2023-05-16T06:15:14.771Z,509.00
2023-05-16T06:16:14.920Z,508.00
2023-05-16T06:17:14.936Z,507.00
2023-05-16T06:18:14.968Z,509.00
2023-05-16T06:19:15.045Z,504.00
2023-05-16T06:20:15.027Z,503.00
2023-05-16T06:21:15.448Z,507.00
2023-05-16T06:22:15.093Z,507.00
2023-05-16T06:23:15.145Z,505.00
2023-05-16T06:24:15.197Z,503.00
2023-05-16T06:25:15.253Z,509.00
2023-05-16T06:26:15.377Z,507.00
2023-05-16T06:27:15.342Z,509.00
2023-05-16T06:28:15.429Z,503.00
2023-05-16T06:29:15.440Z,506.00
2023-05-16T06:30:15.499Z,502.00
2023-05-16T06:31:15.920Z,502.00
2023-05-16T06:32:15.579Z,507.00
2023-05-16T06:33:15.700Z,510.00
2023-05-16T06:34:15.680Z,508.00
2023-05-16T06:35:15.733Z,509.00
2023-05-16T06:36:15.880Z,506.00
2023-05-16T06:37:15.829Z,504.00
2023-05-16T06:38:15.824Z,506.00
2023-05-16T06:39:15.902Z,507.00
2023-05-16T06:40:15.941Z,505.00
2023-05-16T06:41:16.945Z,505.00
2023-05-16T06:42:15.921Z,505.00
2023-05-16T06:43:15.893Z,506.00
2023-05-16T06:44:15.975Z,505.00
2023-05-16T06:45:15.929Z,509.00
2023-05-16T06:46:15.917Z,505.00
2023-05-16T06:47:15.930Z,503.00
2023-05-16T06:48:16.022Z,506.00
2023-05-16T06:49:15.863Z,506.00
2023-05-16T06:50:15.843Z,504.00
2023-05-16T06:51:16.404Z,507.00
2023-05-16T06:52:15.926Z,511.00
2023-05-16T06:53:16.007Z,502.00
2023-05-16T06:54:16.061Z,508.00
2023-05-16T06:55:16.086Z,505.00
2023-05-16T06:56:16.368Z,500.00
2023-05-16T06:57:16.178Z,510.00
2023-05-16T06:58:16.225Z,506.00
2023-05-16T06:59:16.246Z,508.00
2023-05-16T07:00:16.289Z,509.00
2023-05-16T07:01:16.401Z,506.00
2023-05-16T07:02:16.465Z,508.00
2023-05-16T07:03:16.535Z,510.00
2023-05-16T07:04:16.540Z,506.00
2023-05-16T07:05:16.566Z,513.00
2023-05-16T07:06:16.874Z,506.00
2023-05-16T07:07:16.607Z,507.00
2023-05-16T07:08:16.670Z,506.00
2023-05-16T07:09:16.722Z,507.00
2023-05-16T07:10:16.756Z,510.00
2023-05-16T07:11:16.812Z,510.00
2023-05-16T07:12:16.866Z,509.00
2023-05-16T07:13:16.889Z,504.00
2023-05-16T07:14:16.931Z,510.00
2023-05-16T07:15:17.009Z,510.00
2023-05-16T07:16:17.459Z,511.00
2023-05-16T07:17:17.067Z,506.00
2023-05-16T07:18:17.113Z,510.00
2023-05-16T07:19:17.183Z,501.00
2023-05-16T07:20:17.176Z,507.00
2023-05-16T07:21:17.303Z,505.00
2023-05-16T07:22:17.299Z,515.00
2023-05-16T07:23:17.305Z,510.00
2023-05-16T07:24:17.397Z,511.00
2023-05-16T07:25:17.428Z,510.00
2023-05-16T07:26:17.470Z,509.00
2023-05-16T07:27:17.501Z,509.00
2023-05-16T07:28:17.541Z,511.00
2023-05-16T07:29:17.574Z,509.00
2023-05-16T07:30:17.665Z,511.00
2023-05-16T07:31:17.742Z,515.00
2023-05-16T07:32:17.818Z,508.00
2023-05-16T07:33:17.787Z,510.00
2023-05-16T07:34:17.797Z,506.00
2023-05-16T07:35:17.868Z,508.00
2023-05-16T07:36:18.043Z,509.00
2023-05-16T07:37:17.948Z,509.00
2023-05-16T07:38:17.997Z,508.00
2023-05-16T07:39:18.029Z,513.00
2023-05-16T07:40:18.065Z,508.00
2023-05-16T07:41:18.124Z,510.00
2023-05-16T07:42:18.169Z,509.00
2023-05-16T07:43:18.177Z,508.00
2023-05-16T07:44:18.226Z,506.00
2023-05-16T07:45:18.268Z,507.00
2023-05-16T07:46:18.359Z,505.00
2023-05-16T07:47:18.346Z,507.00
2023-05-16T07:48:18.407Z,508.00
2023-05-16T07:49:18.509Z,502.00
2023-05-16T07:50:18.510Z,506.00
2023-05-16T07:51:18.899Z,507.00
2023-05-16T07:52:18.605Z,509.00
2023-05-16T07:53:18.711Z,506.00
2023-05-16T07:54:18.721Z,505.00
2023-05-16T07:55:18.750Z,509.00
2023-05-16T07:56:18.897Z,510.00
2023-05-16T07:57:18.839Z,512.00
2023-05-16T07:58:18.879Z,513.00
2023-05-16T07:59:18.940Z,509.00
2023-05-16T08:00:19.211Z,509.00
2023-05-16T08:01:19.410Z,510.00
2023-05-16T08:02:19.129Z,516.00
2023-05-16T08:03:19.263Z,508.00
2023-05-16T08:04:19.162Z,510.00
2023-05-16T08:05:19.303Z,506.00
2023-05-16T08:06:19.423Z,511.00
2023-05-16T08:07:19.320Z,514.00
2023-05-16T08:08:19.323Z,507.00
2023-05-16T08:09:19.441Z,513.00
2023-05-16T08:10:19.452Z,504.00
2023-05-16T08:11:19.909Z,510.00
2023-05-16T08:12:19.557Z,509.00
2023-05-16T08:13:19.576Z,510.00
2023-05-16T08:14:19.634Z,510.00
2023-05-16T08:15:19.676Z,513.00
2023-05-16T08:16:19.762Z,504.00
2023-05-16T08:17:19.776Z,511.00
2023-05-16T08:18:22.211Z,510.00
2023-05-16T08:19:20.488Z,509.00
2023-05-16T08:20:19.784Z,514.00
2023-05-16T08:21:19.800Z,508.00
2023-05-16T08:22:19.801Z,510.00
2023-05-16T08:23:19.769Z,507.00
2023-05-16T08:24:19.744Z,510.00
2023-05-16T08:25:19.795Z,506.00
2023-05-16T08:26:19.900Z,503.00
2023-05-16T08:27:19.728Z,508.00
2023-05-16T08:28:19.704Z,508.00
2023-05-16T08:29:19.724Z,507.00
2023-05-16T08:30:19.724Z,508.00
2023-05-16T08:31:19.735Z,506.00
2023-05-16T08:32:19.740Z,505.00
2023-05-16T08:33:19.750Z,508.00
2023-05-16T08:34:20.409Z,505.00
2023-05-16T08:35:19.687Z,509.00
2023-05-16T08:36:19.685Z,505.00
2023-05-16T08:37:19.664Z,510.00
2023-05-16T08:38:19.647Z,506.00
2023-05-16T08:39:19.650Z,505.00
2023-05-16T08:40:19.654Z,506.00
2023-05-16T08:41:20.028Z,507.00
2023-05-16T08:42:19.638Z,509.00
2023-05-16T08:43:19.660Z,510.00
2023-05-16T08:44:19.611Z,505.00
2023-05-16T08:45:19.623Z,504.00
2023-05-16T08:46:19.628Z,505.00
2023-05-16T08:47:19.624Z,503.00
2023-05-16T08:48:19.614Z,506.00
2023-05-16T08:49:19.583Z,508.00
2023-05-16T08:50:19.556Z,509.00
2023-05-16T08:51:19.924Z,507.00
2023-05-16T08:52:19.563Z,509.00
2023-05-16T08:53:19.550Z,505.00
2023-05-16T08:54:19.636Z,505.00
2023-05-16T08:55:19.639Z,510.00
2023-05-16T08:56:19.952Z,511.00
2023-05-16T08:57:19.731Z,510.00
2023-05-16T08:58:19.792Z,510.00
2023-05-16T08:59:19.826Z,511.00
2023-05-16T09:00:19.904Z,507.00
2023-05-16T09:01:20.016Z,512.00
2023-05-16T09:02:19.932Z,510.00
2023-05-16T09:03:20.128Z,508.00
2023-05-16T09:04:20.016Z,512.00
2023-05-16T09:05:20.044Z,514.00
2023-05-16T09:06:20.446Z,512.00
2023-05-16T09:07:20.155Z,512.00
2023-05-16T09:08:20.159Z,512.00
2023-05-16T09:09:20.176Z,516.00
2023-05-16T09:10:20.204Z,514.00
2023-05-16T09:11:20.413Z,509.00
2023-05-16T09:12:20.290Z,518.00
2023-05-16T09:13:20.330Z,510.00
2023-05-16T09:14:20.384Z,511.00
2023-05-16T09:15:20.429Z,508.00
2023-05-16T09:16:20.503Z,516.00
2023-05-16T09:17:25.680Z,519.00
2023-05-16T09:18:20.496Z,519.00
2023-05-16T09:19:20.527Z,519.00
2023-05-16T09:20:20.557Z,513.00
2023-05-16T09:21:20.462Z,515.00
2023-05-16T09:22:20.469Z,515.00
2023-05-16T09:23:20.451Z,517.00
2023-05-16T09:24:20.445Z,519.00
2023-05-16T09:25:29.587Z,516.00
2023-05-16T09:26:21.453Z,516.00
2023-05-16T09:27:20.429Z,516.00
2023-05-16T09:28:20.581Z,518.00
2023-05-16T09:29:20.435Z,517.00
2023-05-16T09:30:20.493Z,518.00
2023-05-16T09:31:21.455Z,516.00
2023-05-16T09:32:20.393Z,517.00
2023-05-16T09:33:20.390Z,517.00
2023-05-16T09:34:20.353Z,519.00
2023-05-16T09:35:35.185Z,517.00
2023-05-16T09:36:21.422Z,516.00
2023-05-16T09:37:20.343Z,516.00
2023-05-16T09:38:20.365Z,516.00
2023-05-16T09:39:20.344Z,519.00
2023-05-16T09:40:20.332Z,522.00
2023-05-16T09:41:20.471Z,520.00
2023-05-16T09:42:20.338Z,522.00
2023-05-16T09:43:20.347Z,514.00
2023-05-16T09:44:20.295Z,518.00
2023-05-16T09:45:20.325Z,514.00
2023-05-16T09:46:20.320Z,519.00
2023-05-16T09:47:20.300Z,518.00
2023-05-16T09:48:20.319Z,516.00
2023-05-16T09:49:20.336Z,516.00
2023-05-16T09:50:20.470Z,521.00
2023-05-16T09:51:20.443Z,517.00
2023-05-16T09:52:20.474Z,518.00
2023-05-16T09:53:20.516Z,512.00
2023-05-16T09:54:20.556Z,519.00
2023-05-16T09:55:20.578Z,522.00
2023-05-16T09:56:20.638Z,519.00
2023-05-16T09:57:20.690Z,519.00
2023-05-16T09:58:20.711Z,519.00
2023-05-16T09:59:20.757Z,519.00
2023-05-16T10:00:20.807Z,520.00
2023-05-16T10:01:21.086Z,521.00
2023-05-16T10:02:20.971Z,516.00
2023-05-16T10:03:20.987Z,516.00
2023-05-16T10:04:21.022Z,518.00
2023-05-16T10:05:21.022Z,519.00
2023-05-16T10:06:21.049Z,518.00
2023-05-16T10:07:21.084Z,517.00
2023-05-16T10:08:21.130Z,518.00
2023-05-16T10:09:21.181Z,519.00
2023-05-16T10:10:21.197Z,523.00
2023-05-16T10:11:21.252Z,518.00
2023-05-16T10:12:21.297Z,518.00
2023-05-16T10:13:21.382Z,510.00
2023-05-16T10:14:21.375Z,524.00
2023-05-16T10:15:21.433Z,516.00
2023-05-16T10:16:22.035Z,523.00
2023-05-16T10:17:21.674Z,518.00
2023-05-16T10:18:21.563Z,518.00
2023-05-16T10:19:21.641Z,517.00
2023-05-16T10:20:21.651Z,520.00
2023-05-16T10:21:21.694Z,517.00
2023-05-16T10:22:21.744Z,520.00
2023-05-16T10:23:21.802Z,521.00
2023-05-16T10:24:21.828Z,522.00
2023-05-16T10:25:21.909Z,519.00
2023-05-16T10:26:22.009Z,523.00
2023-05-16T10:27:21.975Z,517.00
2023-05-16T10:28:22.041Z,522.00
2023-05-16T10:29:22.099Z,520.00
2023-05-16T10:30:22.149Z,520.00
2023-05-16T10:31:22.258Z,515.00
2023-05-16T10:32:22.271Z,522.00
2023-05-16T10:33:22.326Z,521.00
2023-05-16T10:34:22.307Z,517.00
2023-05-16T10:35:22.349Z,517.00
2023-05-16T10:36:22.390Z,519.00
2023-05-16T10:37:22.429Z,523.00
2023-05-16T10:38:22.485Z,525.00
2023-05-16T10:39:22.554Z,519.00
2023-05-16T10:40:22.583Z,517.00
2023-05-16T10:41:22.962Z,519.00
2023-05-16T10:42:22.694Z,525.00
2023-05-16T10:43:22.706Z,523.00
2023-05-16T10:44:22.741Z,522.00
2023-05-16T10:45:22.825Z,524.00
2023-05-16T10:46:23.018Z,520.00
2023-05-16T10:47:22.914Z,521.00
2023-05-16T10:48:23.043Z,522.00
2023-05-16T10:49:23.004Z,522.00
2023-05-16T10:50:23.037Z,525.00
2023-05-16T10:51:23.079Z,529.00
2023-05-16T10:52:23.142Z,527.00
2023-05-16T10:53:23.160Z,528.00
2023-05-16T10:54:23.212Z,522.00
2023-05-16T10:55:23.217Z,522.00
2023-05-16T10:56:23.445Z,528.00
2023-05-16T10:57:23.311Z,521.00
2023-05-16T10:58:23.356Z,526.00
2023-05-16T10:59:23.407Z,525.00
2023-05-16T11:00:23.452Z,524.00
2023-05-16T11:01:23.568Z,522.00
2023-05-16T11:02:23.651Z,524.00
2023-05-16T11:03:23.695Z,526.00
2023-05-16T11:04:23.634Z,522.00
2023-05-16T11:05:23.687Z,527.00
2023-05-16T11:06:25.012Z,524.00
2023-05-16T11:07:23.721Z,525.00
2023-05-16T11:08:23.810Z,519.00
2023-05-16T11:09:23.849Z,521.00
2023-05-16T11:10:23.844Z,526.00
2023-05-16T11:11:23.879Z,528.00
2023-05-16T11:12:23.949Z,528.00
2023-05-16T11:13:23.974Z,528.00
2023-05-16T11:14:23.993Z,524.00
2023-05-16T11:15:24.055Z,523.00
2023-05-16T11:16:24.135Z,525.00
2023-05-16T11:17:24.216Z,522.00
2023-05-16T11:18:24.229Z,532.00
2023-05-16T11:19:24.468Z,533.00
2023-05-16T11:20:24.223Z,528.00
2023-05-16T11:21:24.314Z,527.00
2023-05-16T11:22:24.977Z,527.00
2023-05-16T11:23:24.377Z,528.00
2023-05-16T11:24:24.447Z,526.00
2023-05-16T11:25:24.523Z,525.00
2023-05-16T11:26:24.474Z,526.00
2023-05-16T11:27:24.543Z,528.00
2023-05-16T11:28:26.500Z,525.00
2023-05-16T11:29:24.591Z,529.00
2023-05-16T11:30:24.741Z,521.00
2023-05-16T11:31:24.883Z,520.00
2023-05-16T11:32:24.811Z,522.00
2023-05-16T11:33:24.792Z,528.00
2023-05-16T11:34:24.796Z,520.00
2023-05-16T11:35:24.852Z,528.00
2023-05-16T11:36:24.931Z,529.00
2023-05-16T11:37:24.974Z,521.00
2023-05-16T11:38:24.994Z,528.00
2023-05-16T11:39:25.131Z,532.00
2023-05-16T11:40:25.054Z,529.00
2023-05-16T11:41:25.172Z,527.00
2023-05-16T11:42:25.160Z,527.00
2023-05-16T11:43:25.205Z,525.00
2023-05-16T11:44:25.232Z,527.00
2023-05-16T11:45:25.451Z,525.00
2023-05-16T11:46:25.377Z,527.00
2023-05-16T11:47:25.454Z,526.00
2023-05-16T11:48:35.701Z,532.00
2023-05-16T11:49:26.391Z,532.00
2023-05-16T11:50:25.421Z,537.00
2023-05-16T11:51:25.470Z,558.00
2023-05-16T11:52:25.393Z,585.00
2023-05-16T11:53:25.464Z,726.00
2023-05-16T11:54:25.408Z,816.00
2023-05-16T11:55:40.584Z,790.00
2023-05-16T11:56:26.487Z,780.00
2023-05-16T11:57:25.344Z,744.00
2023-05-16T11:58:25.383Z,733.00
2023-05-16T11:59:25.353Z,709.00
2023-05-16T12:00:25.329Z,724.00
2023-05-16T12:01:25.363Z,755.00
2023-05-16T12:02:25.381Z,766.00
2023-05-16T12:03:25.369Z,802.00
2023-05-16T12:04:25.506Z,848.00
2023-05-16T12:05:25.382Z,904.00
2023-05-16T12:06:25.461Z,910.00
2023-05-16T12:07:25.345Z,907.00
2023-05-16T12:08:25.423Z,911.00
2023-05-16T12:09:25.458Z,916.00
2023-05-16T12:10:25.607Z,896.00
2023-05-16T12:11:25.969Z,906.00
2023-05-16T12:12:25.561Z,914.00
2023-05-16T12:13:25.600Z,900.00
2023-05-16T12:14:25.682Z,914.00
2023-05-16T12:15:25.841Z,910.00
2023-05-16T12:16:26.047Z,927.00
2023-05-16T12:17:25.763Z,918.00
2023-05-16T12:18:26.529Z,916.00
2023-05-16T12:19:25.936Z,918.00
2023-05-16T12:20:25.942Z,908.00
2023-05-16T12:21:25.994Z,906.00
2023-05-16T12:22:25.976Z,909.00
2023-05-16T12:23:26.005Z,918.00
2023-05-16T12:24:26.961Z,901.00
2023-05-16T12:25:26.378Z,894.00
2023-05-16T12:26:26.482Z,890.00
2023-05-16T12:27:26.181Z,885.00
2023-05-16T12:28:26.209Z,883.00